Last 24 Hours

BDVWA

Hourly Data | America/Los_Angeles
as of 9/3/26 4:22 PM PDT
Date & Time Temp (°F) RH (%) Dew Pt (°F) Wind Dir (°) Wind Spd (mph) Wind Gust (mph) Wind Gst Dir (°) Pressure (mb) Barometric Press (inHg) Soil Temp (°F) Solar Rad (W/m2) Latest Rain (In) Daily Rain (In) Daily Min Temp (°F) Daily Max Temp (°F) Daily Max Wind (mph) Daily ETo (in)
9/3/26 - 1600 85.2 18 37.3 SSE | 167 9.4 18.2 SSE | 166 1,004.4 29.63 89.2 718 0.00 0.00 58.4 86.7 18.8 0.207
9/3/26 - 1500 85.3 17 35.0 SSE | 158 7.2 18.8 SSE | 167 1,005.0 29.65 89.3 854 0.00 0.00 58.4 86.5 18.8 0.181
9/3/26 - 1400 83.5 16 32.2 SE | 133 3.7 11.2 SSE | 154 1,006.0 29.68 89.4 934 0.00 0.00 58.4 84.7 11.8 0.152
9/3/26 - 1300 81.9 16 31.6 NNE | 25 4.6 11.8 ENE | 73 1,007.0 29.71 89.6 949 0.00 0.00 58.4 83.5 11.8 0.124
9/3/26 - 1200 79.8 17 30.9 ENE | 63 4.8 10.7 E | 99 1,008.2 29.74 89.8 903 0.00 0.00 58.4 82.3 10.7 0.095
9/3/26 - 1100 76.4 18 29.6 ENE | 72 3.3 8.8 E | 79 1,009.2 29.77 90.0 796 0.00 0.00 58.4 79.0 9.4 0.068
9/3/26 - 1000 73.2 20 29.8 E | 99 3.7 8.8 E | 79 1,010.0 29.79 90.2 633 0.00 0.00 58.4 75.0 9.4 0.045
9/3/26 - 0900 70.9 22 29.7 SE | 124 3.3 8.3 E | 80 1,010.5 29.81 90.4 427 0.00 0.00 58.4 72.1 9.4 0.028
9/3/26 - 0800 66.8 24 28.7 SSW | 192 3.2 7.0 W | 268 1,011.2 29.83 90.6 204 0.00 0.00 58.4 69.3 9.4 0.016
9/3/26 - 0700 60.8 27 26.3 W | 259 5.3 9.0 W | 259 1,011.9 29.85 90.7 34 0.00 0.00 58.4 63.4 9.4 0.011
9/3/26 - 0600 59.7 25 24.2 W | 265 4.9 7.5 W | 262 1,012.1 29.86 90.8 0 0.00 0.00 58.4 63.4 9.4 0.009
9/3/26 - 0500 61.1 24 24.1 W | 262 5.3 9.4 W | 265 1,011.8 29.85 90.9 0 0.00 0.00 60.4 63.4 9.4 0.008
9/3/26 - 0400 61.6 23 23.4 W | 261 5.5 9.2 W | 263 1,011.7 29.85 90.9 0 0.00 0.00 60.4 63.4 9.2 0.006
9/3/26 - 0300 62.0 24 24.6 W | 262 4.7 7.5 WNW | 285 1,011.9 29.85 91.0 0 0.00 0.00 60.4 63.4 7.9 0.004
9/3/26 - 0200 62.8 27 27.9 W | 265 5.2 7.9 W | 277 1,012.1 29.86 90.9 0 0.00 0.00 62.1 63.4 7.9 0.002
9/3/26 - 0100 62.9 29 30.4 W | 264 4.5 7.9 WSW | 257 1,012.3 29.86 90.9 0 0.00 0.00 60.0 87.7 28.7 0.276
9/3/26 - 0000 64.6 28 30.5 WSW | 256 4.9 8.6 WSW | 257 1,012.0 29.85 90.8 0 0.00 0.00 60.0 87.7 28.7 0.275
9/2/26 - 2300 65.8 29 33.0 W | 268 3.9 6.4 W | 270 1,012.1 29.86 90.7 0 0.00 0.00 60.0 87.7 28.7 0.273
9/2/26 - 2200 68.4 30 36.1 W | 263 4.1 7.7 W | 261 1,011.3 29.83 90.5 0 0.00 0.00 60.0 87.7 28.7 0.272
9/2/26 - 2100 71.3 28 36.7 W | 275 3.2 7.0 W | 266 1,010.2 29.80 90.4 0 0.00 0.00 60.0 87.7 28.7 0.270
9/2/26 - 2000 75.3 25 37.4 SW | 220 3.2 8.8 SW | 235 1,008.8 29.76 90.2 2 0.00 0.00 60.0 87.7 28.7 0.269
9/2/26 - 1900 80.1 20 35.8 SSW | 202 6.5 16.9 S | 183 1,007.7 29.73 90.1 109 0.00 0.00 60.0 87.7 28.7 0.268
9/2/26 - 1800 83.6 16 33.0 S | 187 9.4 16.9 SSW | 194 1,006.6 29.70 90.0 331 0.00 0.00 60.0 87.7 28.7 0.262
9/2/26 - 1700 86.2 14 31.0 S | 177 7.5 15.8 SSW | 196 1,006.2 29.68 90.0 551 0.00 0.00 60.0 87.7 28.7 0.246
9/2/26 - 1600 86.4 13 29.7 S | 184 7.7 18.6 S | 190 1,006.7 29.70 90.0 739 0.00 0.00 60.0 87.7 28.7 0.225
Max 86.4 30 37.4 - 9.4 18.8 - 1,012.3 29.86 91.0 949 0.00 0.00 62.1 87.7 28.7 0.276
Avg 72.6 22 30.8 - 5.2 10.7 - 1,009.5 29.78 90.3 327 0.00 - - - - -
Min 59.7 13 23.4 - 3.2 6.4 - 1,004.4 29.63 89.2 0 0.00 0.00 58.4 63.4 7.9 0.002
Total - - - - - - - - - - - 0.00 - - - - -